| Date | Time | Temp. (oF) | Dew Point (oF) | Rel. Hum. (%) | Press. (in.) | Wind Dir. | Wind Speed (mph) | Hourly Rainfall (in.) |
|
|---|---|---|---|---|---|---|---|---|---|
| 1 | 04/21 | 00:00 | 52 | 28 | 41 | 30.11 | S | 0 | 0.00 |
| 2 | 04/20 | 23:00 | 55 | 28 | 36 | 30.12 | S | 0 | 0.00 |
| 3 | 04/20 | 22:00 | 56 | 28 | 35 | 30.11 | S | 0 | 0.00 |
| 4 | 04/20 | 21:00 | 57 | 26 | 31 | 30.11 | S | 0 | 0.00 |
| 5 | 04/20 | 20:00 | 62 | 23 | 23 | 30.09 | ESE | 0 | 0.00 |
| 6 | 04/20 | 19:00 | 65 | 22 | 20 | 30.09 | S | 0 | 0.00 |
| 7 | 04/20 | 18:00 | 67 | 24 | 20 | 30.09 | SE | 0 | 0.00 |
| 8 | 04/20 | 17:00 | 67 | 25 | 21 | 30.10 | S | 0 | 0.00 |
| 9 | miss | miss | miss | miss | miss | miss | miss | miss | |
| 10 | 04/20/16 | 23 | -3 | 30 | 0.00 | 00MPH | 0 | 0.00 | |
| 11 | miss | miss | miss | miss | miss | miss | miss | miss | |
| 12 | 04/20/16 | 23 | -3 | 30 | 0.00 | 00MPH | 0 | 0.00 | |
| 13 | miss | miss | miss | miss | miss | miss | miss | miss | |
| 14 | 04/20/16 | 23 | -3 | 30 | 0.00 | 00MPH | 0 | 0.00 | |
| 15 | miss | miss | miss | miss | miss | miss | miss | miss | |
| 16 | 04/20/16 | 23 | -3 | 30 | 0.00 | 00MPH | 0 | 0.00 | |
| 17 | miss | miss | miss | miss | miss | miss | miss | miss | |
| 18 | 04/20/16 | 23 | -3 | 30 | 0.00 | 00MPH | 0 | 0.00 | |
| 19 | miss | miss | miss | miss | miss | miss | miss | miss | |
| 20 | 04/20/16 | 23 | -3 | 30 | 0.00 | 00MPH | 0 | 0.00 | |
| 21 | miss | miss | miss | miss | miss | miss | miss | miss | |
| 22 | 04/20 | 16:23 | 66 | 24 | 21 | 30.11 | SSW | 0 | 0.00 |
| 23 | miss | miss | miss | miss | miss | miss | miss | miss | |
| 24 | 04/20 | 16:21 | 66 | 25 | 22 | 30.11 | SE | 0 | 0.00 |
| 25 | miss | miss | miss | miss | miss | miss | miss | miss | |
| 26 | 04/20 | 16:20 | 67 | 26 | 22 | 30.11 | SSE | 0 | 0.00 |
| 27 | miss | miss | miss | miss | miss | miss | miss | miss | |
| 28 | 04/20 | 16:20 | 67 | 26 | 22 | 30.11 | SSE | 0 | 0.00 |
| 29 | miss | miss | miss | miss | miss | miss | miss | miss | |
| 30 | 04/20 | 16:20 | 67 | 26 | 22 | 30.11 | SSE | 0 | 0.00 |
| 31 | miss | miss | miss | miss | miss | miss | miss | miss | |
| 32 | 04/20 | 16:20 | 67 | 26 | 22 | 30.11 | SSE | 0 | 0.00 |
| 33 | 04/20 | 16:00 | 67 | 29 | 25 | 30.13 | WSW | 1 | 0.00 |
| 34 | 04/20 | 15:00 | 65 | 27 | 25 | 30.15 | NNE | 0 | 0.00 |
| 35 | 04/20 | 14:00 | 64 | 26 | 24 | 30.18 | N | 0 | 0.00 |
| 36 | 04/20 | 13:00 | 63 | 29 | 28 | 30.19 | NNE | 4 | 0.00 |
| 37 | 04/20 | 12:00 | 60 | 26 | 28 | 30.22 | E | 0 | 0.00 |
| 38 | 04/20 | 11:00 | 58 | 25 | 29 | 30.24 | WSW | 0 | 0.00 |
| 39 | 04/20 | 10:00 | 56 | 26 | 32 | 30.24 | N | 4 | 0.00 |
| 40 | 04/20 | 09:00 | 54 | 25 | 33 | 30.23 | NE | 0 | 0.00 |
| 41 | 04/20 | 08:00 | 43 | 35 | 74 | 30.23 | S | 0 | 0.00 |
| 42 | 04/20 | 07:00 | 36 | 27 | 72 | 30.20 | SW | 0 | 0.00 |
| 43 | 04/20 | 06:00 | 37 | 27 | 67 | 30.18 | SSW | 0 | 0.00 |
| 44 | 04/20 | 05:00 | 39 | 26 | 61 | 30.16 | SSW | 0 | 0.00 |
| 45 | 04/20 | 04:00 | 45 | 25 | 47 | 30.16 | W | 0 | 0.00 |
| 46 | 04/20 | 03:00 | 46 | 24 | 42 | 30.16 | WSW | 0 | 0.00 |
| 47 | 04/20 | 02:00 | 48 | 24 | 39 | 30.16 | W | 0 | 0.00 |
| 48 | 04/20 | 01:00 | 51 | 24 | 35 | 30.15 | NNE | 0 | 0.00 |
| 49 | 04/20 | 00:00 | 52 | 21 | 30 | 30.14 | NNE | 0 | 0.00 |
| 50 | 04/19 | 23:00 | 55 | 21 | 27 | 30.12 | NE | 4 | 0.00 |
| 51 | 04/19 | 22:00 | 58 | 21 | 24 | 30.10 | NNE | 13 | 0.00 |
| 52 | 04/19 | 21:00 | 60 | 27 | 29 | 30.06 | N | 7 | 0.00 |
| 53 | 04/19 | 20:00 | 62 | 28 | 28 | 30.02 | ENE | 9 | 0.00 |
| 54 | 04/19 | 19:00 | 65 | 27 | 25 | 30.00 | NNE | 8 | 0.00 |
| 55 | 04/19 | 18:00 | 66 | 25 | 22 | 29.99 | N | 6 | 0.00 |
| 56 | 04/19 | 17:00 | 67 | 31 | 27 | 29.99 | NNE | 16 | 0.00 |
| 57 | 04/19 | 16:00 | 66 | 34 | 31 | 30.00 | N | 9 | 0.00 |
| 58 | 04/19 | 15:00 | 68 | 38 | 34 | 29.99 | NNE | 8 | 0.00 |
| 59 | 04/19 | 14:00 | 68 | 39 | 35 | 29.98 | W | 7 | 0.00 |
| 60 | 04/19 | 13:00 | 69 | 41 | 37 | 29.97 | NNE | 9 | 0.00 |
| 61 | 04/19 | 12:00 | 72 | 44 | 37 | 29.95 | WNW | 16 | 0.00 |
| 62 | 04/19 | 11:00 | 72 | 42 | 35 | 29.96 | N | 13 | 0.00 |
| 63 | 04/19 | 10:00 | 70 | 39 | 33 | 29.95 | N | 12 | 0.00 |
| 64 | 04/19 | 09:00 | 66 | 44 | 46 | 29.96 | WNW | 1 | 0.00 |
| 65 | 04/19 | 08:00 | 52 | 45 | 78 | 29.96 | SSW | 0 | 0.00 |
| 66 | 04/19 | 07:00 | 46 | 40 | 82 | 29.96 | E | 0 | 0.00 |
| 67 | 04/19 | 06:00 | 45 | 38 | 79 | 29.96 | SW | 0 | 0.00 |
| 68 | 04/19 | 05:00 | 47 | 39 | 76 | 29.96 | S | 0 | 0.00 |
| 69 | 04/19 | 04:00 | 49 | 40 | 72 | 29.96 | N | 0 | 0.00 |
| 70 | 04/19 | 03:00 | 50 | 40 | 69 | 29.97 | S | 0 | 0.00 |
| 71 | 04/19 | 02:00 | 52 | 40 | 64 | 29.99 | SW | 0 | 0.00 |
| 72 | 04/19 | 01:00 | 56 | 38 | 51 | 30.01 | NNE | 0 | 0.00 |
| 73 | 04/19 | 00:00 | 56 | 39 | 55 | 30.00 | NNE | 0 | 0.00 |